首页
METAR-TAF:

METAR-TAF

机场 :

實里達機場

新加坡, 新加坡

纬度: 01-25-08N, 经度: 103-51-57E, 海拔: 11米

当前天气观测

该预报发布于29分钟前的05:00 UTC
风速5节,风向,在西北北转东北之间变化
温度 32°C
湿度 71%
气压 1007 hPa
能见度10公里或以上
少量云层高于1800英尺, 塔状积云.
多云层高于30000英尺

METAR: WSSL 230500Z 35005KT 310V030 9999 FEW018TCU BKN300 32/26 Q1007

时间: 13:29 (05:29 UTC)

预报

该预报发布于3小时和44分钟前的01:45 UTC
预报有效从23日的 01点(UTC)到 24日的 06点(UTC)
风速8节,风向东南
能见度10公里或以上
少量云层高于1500英尺
散云层高于2000英尺
短暂存在
从 23日的 05点(UTC)到 23日的 08点(UTC)
能見度: 3000
少量云层高于1200英尺, 积雨云.
多云层高于1500英尺
雷暴, 雨,

TAF: WSSL 230145Z 2301/2406 14008KT 9999 FEW015 SCT020 TEMPO 2305/2308 3000 TSRA FEW012CB BKN015

超过4000个机场的气象观测和天气预报(METAR&TAF报告)。

可查询的气象台以黄色和红色小点在地图上表示。

将鼠标移到小点上方,可查看气象台名称。

然后点击查看天气观测和预报。

如需切换地图:点击带黑十字的绿色按钮放大地图;点击带横线的绿色按钮缩小地图;或者点击绿色箭头查看邻近地区的地图。


METAR-TAF: